createdAt,value
2022-12-11T00:00:53.696Z,22.16
2022-12-11T00:03:21.209Z,22.18
2022-12-11T00:05:48.733Z,22.18
2022-12-11T00:08:16.299Z,22.17
2022-12-11T00:10:50.100Z,22.19
2022-12-11T00:13:17.602Z,22.21
2022-12-11T00:15:45.170Z,22.21
2022-12-11T00:18:14.177Z,22.22
2022-12-11T00:20:41.782Z,22.22
2022-12-11T00:23:10.844Z,22.22
2022-12-11T00:25:45.548Z,22.20
2022-12-11T00:28:15.128Z,22.23
2022-12-11T00:30:43.194Z,22.22
2022-12-11T00:33:12.272Z,22.24
2022-12-11T00:35:41.672Z,22.22
2022-12-11T00:38:09.599Z,22.23
2022-12-11T00:40:37.435Z,22.23
2022-12-11T00:43:05.048Z,22.25
2022-12-11T00:45:37.019Z,22.26
2022-12-11T00:48:04.994Z,22.24
2022-12-11T00:50:32.961Z,22.24
2022-12-11T00:53:00.648Z,22.25
2022-12-11T00:55:29.292Z,22.30
2022-12-11T00:57:58.381Z,22.29
2022-12-11T01:00:25.810Z,22.30
2022-12-11T01:02:53.312Z,22.28
2022-12-11T01:05:20.789Z,22.31
2022-12-11T01:07:48.246Z,22.30
2022-12-11T01:10:24.773Z,22.29
2022-12-11T01:12:54.460Z,22.30
2022-12-11T01:15:24.587Z,22.32
2022-12-11T01:17:52.594Z,22.31
2022-12-11T01:20:21.922Z,22.32
2022-12-11T01:22:53.679Z,22.34
2022-12-11T01:25:21.392Z,22.32
2022-12-11T01:27:51.884Z,22.34
2022-12-11T01:30:21.249Z,22.36
2022-12-11T01:32:49.027Z,22.36
2022-12-11T01:35:17.555Z,22.37
2022-12-11T01:37:45.692Z,22.37
2022-12-11T01:40:19.577Z,22.37
2022-12-11T01:42:47.797Z,22.38
2022-12-11T01:45:30.513Z,22.38
2022-12-11T01:48:06.531Z,22.37
2022-12-11T01:50:39.764Z,22.37
2022-12-11T01:53:10.366Z,22.39
2022-12-11T01:55:40.032Z,22.38
2022-12-11T01:58:08.579Z,22.39
2022-12-11T02:00:36.201Z,22.39
2022-12-11T02:03:03.672Z,22.39
2022-12-11T02:05:31.168Z,22.41
2022-12-11T02:08:02.330Z,22.41
2022-12-11T02:11:01.424Z,22.41
2022-12-11T02:13:36.361Z,22.42
2022-12-11T02:16:21.826Z,22.43
2022-12-11T02:19:00.543Z,22.44
2022-12-11T02:21:43.129Z,22.44
2022-12-11T02:24:35.055Z,22.46
2022-12-11T02:27:05.196Z,22.47
2022-12-11T02:29:39.627Z,22.45
2022-12-11T02:32:13.617Z,22.46
2022-12-11T02:34:49.379Z,22.46
2022-12-11T02:37:20.602Z,22.46
2022-12-11T02:39:51.370Z,22.48
2022-12-11T02:42:20.605Z,22.48
2022-12-11T02:44:49.956Z,22.48
2022-12-11T02:47:19.977Z,22.49
2022-12-11T02:49:49.912Z,22.50
2022-12-11T02:52:21.866Z,22.50
2022-12-11T02:54:52.754Z,22.52
2022-12-11T02:57:30.123Z,22.51
2022-12-11T02:59:57.581Z,22.50
2022-12-11T03:02:25.105Z,22.52
2022-12-11T03:04:53.041Z,22.53
2022-12-11T03:07:28.622Z,22.53
2022-12-11T03:09:56.045Z,22.52
2022-12-11T03:12:32.716Z,22.54
2022-12-11T03:15:03.542Z,22.54
2022-12-11T03:18:15.769Z,22.54
2022-12-11T03:21:20.212Z,22.56
2022-12-11T03:24:10.522Z,22.57
2022-12-11T03:26:43.872Z,22.57
2022-12-11T03:29:21.223Z,22.58
2022-12-11T03:32:03.920Z,22.58
2022-12-11T03:34:38.659Z,22.59
2022-12-11T03:37:08.876Z,22.59
2022-12-11T03:39:41.057Z,22.59
2022-12-11T03:42:12.064Z,22.60
2022-12-11T03:44:40.420Z,22.60
2022-12-11T03:47:10.138Z,22.60
2022-12-11T03:49:42.119Z,22.62
2022-12-11T03:52:12.536Z,22.62
2022-12-11T03:54:43.113Z,22.63
2022-12-11T03:57:15.756Z,22.62
2022-12-11T03:59:43.355Z,22.64
2022-12-11T04:02:11.149Z,22.64
2022-12-11T04:04:39.730Z,22.65
2022-12-11T04:07:08.283Z,22.64
2022-12-11T04:09:36.317Z,22.65
2022-12-11T04:12:03.829Z,22.66
2022-12-11T04:14:50.232Z,22.66
2022-12-11T04:17:37.617Z,22.66
2022-12-11T04:20:24.989Z,22.66
2022-12-11T04:23:10.882Z,22.67
2022-12-11T04:25:38.281Z,22.68
2022-12-11T04:28:05.723Z,22.69
2022-12-11T04:30:34.486Z,22.68
2022-12-11T04:33:02.371Z,22.68
2022-12-11T04:35:29.798Z,22.68
2022-12-11T04:37:57.366Z,22.68
2022-12-11T04:40:25.315Z,22.68
2022-12-11T04:42:52.861Z,22.70
2022-12-11T04:45:20.312Z,22.69
2022-12-11T04:47:47.909Z,22.69
2022-12-11T04:50:16.158Z,22.70
2022-12-11T04:52:43.947Z,22.71
2022-12-11T04:55:12.582Z,22.72
2022-12-11T04:57:40.216Z,22.71
2022-12-11T05:00:11.435Z,22.72
2022-12-11T05:02:40.506Z,22.72
2022-12-11T05:05:11.241Z,22.72
2022-12-11T05:07:40.048Z,22.73
2022-12-11T05:10:08.295Z,22.72
2022-12-11T05:12:35.727Z,22.72
2022-12-11T05:15:03.597Z,22.73
2022-12-11T05:17:31.082Z,22.72
2022-12-11T05:19:58.466Z,22.72
2022-12-11T05:22:25.931Z,22.72
2022-12-11T05:24:53.404Z,22.72
2022-12-11T05:27:21.003Z,22.74
2022-12-11T05:29:48.470Z,22.74
2022-12-11T05:32:16.029Z,22.72
2022-12-11T05:34:43.484Z,22.74
2022-12-11T05:37:10.916Z,22.74
2022-12-11T05:39:38.486Z,22.76
2022-12-11T05:42:05.937Z,22.73
2022-12-11T05:44:33.831Z,22.74
2022-12-11T05:47:01.294Z,22.74
2022-12-11T05:49:31.039Z,22.74
2022-12-11T05:51:58.739Z,22.75
2022-12-11T05:54:26.141Z,22.74
2022-12-11T05:56:53.553Z,22.75
2022-12-11T05:59:21.052Z,22.75
2022-12-11T06:01:48.631Z,22.75
2022-12-11T06:04:16.156Z,22.74
2022-12-11T06:06:46.674Z,22.75
2022-12-11T06:09:15.668Z,22.75
2022-12-11T06:11:43.485Z,22.73
2022-12-11T06:14:12.079Z,22.72
2022-12-11T06:16:39.742Z,22.73
2022-12-11T06:19:07.448Z,22.75
2022-12-11T06:21:34.895Z,22.74
2022-12-11T06:24:05.683Z,22.74
2022-12-11T06:26:33.303Z,22.74
2022-12-11T06:29:00.706Z,22.75
2022-12-11T06:31:28.226Z,22.74
2022-12-11T06:33:55.962Z,22.76
2022-12-11T06:36:24.505Z,22.76
2022-12-11T06:38:52.853Z,22.75
2022-12-11T06:41:20.401Z,22.75
2022-12-11T06:43:47.836Z,22.74
2022-12-11T06:46:18.438Z,22.77
2022-12-11T06:48:46.635Z,22.74
2022-12-11T06:51:17.166Z,22.75
2022-12-11T06:53:45.375Z,22.76
2022-12-11T06:56:15.754Z,22.74
2022-12-11T06:58:43.946Z,22.74
2022-12-11T07:01:23.596Z,22.74
2022-12-11T07:03:54.366Z,22.74
2022-12-11T07:06:22.285Z,22.76
2022-12-11T07:08:49.732Z,22.76
2022-12-11T07:11:19.340Z,22.77
2022-12-11T07:13:47.128Z,22.76
2022-12-11T07:16:16.297Z,22.75
2022-12-11T07:18:48.001Z,22.77
2022-12-11T07:21:15.837Z,22.77
2022-12-11T07:23:43.417Z,22.75
2022-12-11T07:26:13.420Z,22.77
2022-12-11T07:28:41.745Z,22.75
2022-12-11T07:31:12.055Z,22.76
2022-12-11T07:33:40.396Z,22.76
2022-12-11T07:36:09.484Z,22.75
2022-12-11T07:38:37.419Z,22.75
2022-12-11T07:41:07.328Z,22.76
2022-12-11T07:43:35.599Z,22.77
2022-12-11T07:46:05.526Z,22.74
2022-12-11T07:48:36.547Z,22.75
2022-12-11T07:51:17.360Z,22.75
2022-12-11T07:53:46.710Z,22.74
2022-12-11T07:56:15.751Z,22.74
2022-12-11T07:58:43.517Z,22.76
2022-12-11T08:01:22.463Z,22.76
2022-12-11T08:03:50.908Z,22.76
2022-12-11T08:06:21.481Z,22.75
2022-12-11T08:08:49.084Z,22.77
2022-12-11T08:11:16.524Z,22.75
2022-12-11T08:13:44.414Z,22.78
2022-12-11T08:16:14.400Z,22.78
2022-12-11T08:18:43.452Z,22.77
2022-12-11T08:21:18.758Z,22.77
2022-12-11T08:23:46.638Z,22.75
2022-12-11T08:26:16.503Z,22.76
2022-12-11T08:28:44.715Z,22.75
2022-12-11T08:31:13.918Z,22.76
2022-12-11T08:33:41.955Z,22.77
2022-12-11T08:36:12.711Z,22.75
2022-12-11T08:38:40.717Z,22.76
2022-12-11T08:41:12.656Z,22.75
2022-12-11T08:43:40.608Z,22.76
2022-12-11T08:46:09.117Z,22.73
2022-12-11T08:48:38.713Z,22.76
2022-12-11T08:51:09.285Z,22.72
2022-12-11T08:53:36.950Z,22.76
2022-12-11T08:56:09.738Z,22.72
2022-12-11T08:58:37.907Z,22.72
2022-12-11T09:01:12.771Z,22.74
2022-12-11T09:03:41.337Z,22.74
2022-12-11T09:06:11.730Z,22.75
2022-12-11T09:08:39.396Z,22.74
2022-12-11T09:11:09.243Z,22.74
2022-12-11T09:13:37.643Z,22.74
2022-12-11T09:16:07.450Z,22.73
2022-12-11T09:18:36.208Z,22.72
2022-12-11T09:21:06.961Z,22.73
2022-12-11T09:23:34.522Z,22.71
2022-12-11T09:26:11.080Z,22.71
2022-12-11T09:28:44.309Z,22.71
2022-12-11T09:31:19.749Z,22.72
2022-12-11T09:33:47.609Z,22.71
2022-12-11T09:36:15.103Z,22.72
2022-12-11T09:38:45.638Z,22.72
2022-12-11T09:41:36.280Z,22.70
2022-12-11T09:44:30.182Z,22.71
2022-12-11T09:46:59.013Z,22.69
2022-12-11T09:49:42.531Z,22.69
2022-12-11T09:52:31.858Z,22.69
2022-12-11T09:55:02.383Z,22.71
2022-12-11T09:57:40.126Z,22.70
2022-12-11T10:00:16.591Z,22.69
2022-12-11T10:03:11.535Z,22.69
2022-12-11T10:06:06.959Z,22.70
2022-12-11T10:08:49.059Z,22.70
2022-12-11T10:11:55.902Z,22.68
2022-12-11T10:14:35.909Z,22.70
2022-12-11T10:17:34.055Z,22.69
2022-12-11T10:20:24.485Z,22.68
2022-12-11T10:22:54.372Z,22.68
2022-12-11T10:25:44.896Z,22.67
2022-12-11T10:28:14.674Z,22.65
2022-12-11T10:30:57.756Z,22.67
2022-12-11T10:33:37.159Z,22.67
2022-12-11T10:36:08.002Z,22.69
2022-12-11T10:38:42.923Z,22.68
2022-12-11T10:41:40.636Z,22.68
2022-12-11T10:44:22.764Z,22.67
2022-12-11T10:47:06.005Z,22.67
2022-12-11T10:49:35.314Z,22.65
2022-12-11T10:52:11.892Z,22.67
2022-12-11T10:54:47.074Z,22.67
2022-12-11T10:57:15.807Z,22.67
2022-12-11T10:59:43.244Z,22.65
2022-12-11T11:02:32.337Z,22.65
2022-12-11T11:05:10.655Z,22.67
2022-12-11T11:07:38.334Z,22.63
2022-12-11T11:10:05.879Z,22.65
2022-12-11T11:12:47.759Z,22.66
2022-12-11T11:15:25.762Z,22.64
2022-12-11T11:18:00.813Z,22.65
2022-12-11T11:20:31.051Z,22.65
2022-12-11T11:23:05.038Z,22.64
2022-12-11T11:25:33.724Z,22.65
2022-12-11T11:28:06.989Z,22.63
2022-12-11T11:30:37.308Z,22.62
2022-12-11T11:33:12.821Z,22.63
2022-12-11T11:35:45.709Z,22.62
2022-12-11T11:38:18.793Z,22.60
2022-12-11T11:40:53.374Z,22.62
2022-12-11T11:43:36.976Z,22.61
2022-12-11T11:46:40.535Z,22.62
2022-12-11T11:49:23.012Z,22.62
2022-12-11T11:52:03.854Z,22.62
2022-12-11T11:54:35.652Z,22.62
2022-12-11T11:57:13.794Z,22.61
2022-12-11T12:00:09.923Z,22.61
2022-12-11T12:02:41.668Z,22.62
2022-12-11T12:05:13.803Z,22.62
2022-12-11T12:07:51.467Z,22.60
2022-12-11T12:10:27.033Z,22.60
2022-12-11T12:13:48.742Z,22.59
2022-12-11T12:16:52.082Z,22.58
2022-12-11T12:19:51.367Z,22.60
2022-12-11T12:22:51.452Z,22.59
2022-12-11T12:25:40.848Z,22.59
2022-12-11T12:28:36.296Z,22.58
2022-12-11T12:31:18.520Z,22.61
2022-12-11T12:33:54.220Z,22.58
2022-12-11T12:36:37.625Z,22.57
2022-12-11T12:39:35.433Z,22.57
2022-12-11T12:42:07.703Z,22.58
2022-12-11T12:44:46.811Z,22.56
2022-12-11T12:47:18.465Z,22.56
2022-12-11T12:49:48.538Z,22.58
2022-12-11T12:52:21.378Z,22.58
2022-12-11T12:55:12.965Z,22.58
2022-12-11T12:57:45.061Z,22.57
2022-12-11T13:00:13.714Z,22.57
2022-12-11T13:02:51.767Z,22.57
2022-12-11T13:05:28.853Z,22.57
2022-12-11T13:08:02.529Z,22.55
2022-12-11T13:10:38.264Z,22.55
2022-12-11T13:13:25.465Z,22.56
2022-12-11T13:15:53.341Z,22.55
2022-12-11T13:18:39.461Z,22.55
2022-12-11T13:21:30.838Z,22.56
2022-12-11T13:24:28.076Z,22.55
2022-12-11T13:26:55.952Z,22.54
2022-12-11T13:29:30.593Z,22.54
2022-12-11T13:32:01.375Z,22.53
2022-12-11T13:34:33.717Z,22.53
2022-12-11T13:37:02.930Z,22.54
2022-12-11T13:39:35.057Z,22.56
2022-12-11T13:42:11.873Z,22.54
2022-12-11T13:44:43.223Z,22.55
2022-12-11T13:47:17.196Z,22.54
2022-12-11T13:49:48.994Z,22.54
2022-12-11T13:52:22.476Z,22.54
2022-12-11T13:54:53.002Z,22.53
2022-12-11T13:57:23.224Z,22.52
2022-12-11T13:59:53.390Z,22.53
2022-12-11T14:02:31.960Z,22.52
2022-12-11T14:05:10.048Z,22.52
2022-12-11T14:07:49.924Z,22.53
2022-12-11T14:10:24.761Z,22.51
2022-12-11T14:13:03.445Z,22.51
2022-12-11T14:15:33.041Z,22.50
2022-12-11T14:18:01.007Z,22.51
2022-12-11T14:20:31.696Z,22.50
2022-12-11T14:23:15.269Z,22.51
2022-12-11T14:25:42.720Z,22.51
2022-12-11T14:28:17.402Z,22.53
2022-12-11T14:30:50.729Z,22.50
2022-12-11T14:33:22.000Z,22.50
2022-12-11T14:35:52.529Z,22.51
2022-12-11T14:38:29.168Z,22.49
2022-12-11T14:41:02.816Z,22.48
2022-12-11T14:43:36.537Z,22.50
2022-12-11T14:46:09.403Z,22.49
2022-12-11T14:48:45.189Z,22.49
2022-12-11T14:51:16.368Z,22.49
2022-12-11T14:53:49.356Z,22.48
2022-12-11T14:56:22.320Z,22.47
2022-12-11T14:59:06.209Z,22.48
2022-12-11T15:01:36.561Z,22.48
2022-12-11T15:04:06.711Z,22.45
2022-12-11T15:06:42.797Z,22.46
2022-12-11T15:09:20.527Z,22.46
2022-12-11T15:11:50.862Z,22.45
2022-12-11T15:14:20.844Z,22.45
2022-12-11T15:16:49.774Z,22.45
2022-12-11T15:19:47.669Z,22.44
2022-12-11T15:22:16.957Z,22.45
2022-12-11T15:24:48.604Z,22.44
2022-12-11T15:27:30.107Z,22.44
2022-12-11T15:29:57.685Z,22.44
2022-12-11T15:32:25.644Z,22.46
2022-12-11T15:34:54.752Z,22.45
2022-12-11T15:37:31.693Z,22.45
2022-12-11T15:40:00.083Z,22.46
2022-12-11T15:42:45.391Z,22.45
2022-12-11T15:45:18.053Z,22.44
2022-12-11T15:47:46.294Z,22.43
2022-12-11T15:50:21.693Z,22.43
2022-12-11T15:52:51.138Z,22.44
2022-12-11T15:55:20.045Z,22.44
2022-12-11T15:57:56.836Z,22.43
2022-12-11T16:00:25.140Z,22.43
2022-12-11T16:02:52.663Z,22.42
2022-12-11T16:05:20.735Z,22.44
2022-12-11T16:07:49.195Z,22.42
2022-12-11T16:10:18.725Z,22.43
2022-12-11T16:12:46.543Z,22.42
2022-12-11T16:15:21.459Z,22.41
2022-12-11T16:17:50.836Z,22.40
2022-12-11T16:20:18.451Z,22.40
2022-12-11T16:22:45.966Z,22.41
2022-12-11T16:25:13.640Z,22.42
2022-12-11T16:27:41.326Z,22.42
2022-12-11T16:30:10.740Z,22.43
2022-12-11T16:32:38.256Z,22.42
2022-12-11T16:35:07.272Z,22.41
2022-12-11T16:37:34.853Z,22.41
2022-12-11T16:40:02.348Z,22.43
2022-12-11T16:42:30.163Z,22.42
2022-12-11T16:45:12.585Z,22.41
2022-12-11T16:47:40.264Z,22.42
2022-12-11T16:50:08.669Z,22.44
2022-12-11T16:52:36.393Z,22.43
2022-12-11T16:55:04.523Z,22.46
2022-12-11T16:57:32.089Z,22.43
2022-12-11T16:59:59.520Z,22.42
2022-12-11T17:02:27.055Z,22.38
2022-12-11T17:04:54.514Z,22.40
2022-12-11T17:07:22.121Z,22.38
2022-12-11T17:09:50.010Z,22.38
2022-12-11T17:12:17.941Z,22.38
2022-12-11T17:14:45.927Z,22.37
2022-12-11T17:17:13.753Z,22.36
2022-12-11T17:19:41.335Z,22.35
2022-12-11T17:22:09.002Z,22.33
2022-12-11T17:24:36.447Z,22.34
2022-12-11T17:27:03.985Z,22.34
2022-12-11T17:29:31.752Z,22.33
2022-12-11T17:31:59.561Z,22.36
2022-12-11T17:34:27.039Z,22.34
2022-12-11T17:36:54.502Z,22.33
2022-12-11T17:39:22.343Z,22.33
2022-12-11T17:41:49.871Z,22.34
2022-12-11T17:44:17.317Z,22.35
2022-12-11T17:46:44.934Z,22.36
2022-12-11T17:49:12.411Z,22.35
2022-12-11T17:51:39.875Z,22.37
2022-12-11T17:54:07.344Z,22.35
2022-12-11T17:56:36.253Z,22.37
2022-12-11T17:59:04.648Z,22.36
2022-12-11T18:01:32.759Z,22.36
2022-12-11T18:04:01.910Z,22.37
2022-12-11T18:06:30.146Z,22.36
2022-12-11T18:08:57.875Z,22.37
2022-12-11T18:11:25.631Z,22.36
2022-12-11T18:13:53.781Z,22.37
2022-12-11T18:16:26.212Z,22.37
2022-12-11T18:18:54.683Z,22.38
2022-12-11T18:21:26.158Z,22.37
2022-12-11T18:23:54.709Z,22.39
2022-12-11T18:26:23.379Z,22.38
2022-12-11T18:28:51.963Z,22.40
2022-12-11T18:31:20.879Z,22.38
2022-12-11T18:33:48.733Z,22.38
2022-12-11T18:36:18.116Z,22.38
2022-12-11T18:38:47.110Z,22.36
2022-12-11T18:41:16.565Z,22.37
2022-12-11T18:43:44.606Z,22.36
2022-12-11T18:46:14.758Z,22.38
2022-12-11T18:48:43.673Z,22.37
2022-12-11T18:51:14.798Z,22.35
2022-12-11T18:53:42.237Z,22.34
2022-12-11T18:56:15.698Z,22.35
2022-12-11T18:58:43.261Z,22.35
2022-12-11T19:01:23.131Z,22.36
2022-12-11T19:03:55.347Z,22.35
2022-12-11T19:06:28.694Z,22.36
2022-12-11T19:08:57.108Z,22.37
2022-12-11T19:11:26.869Z,22.36
2022-12-11T19:13:58.493Z,22.34
2022-12-11T19:16:33.601Z,22.33
2022-12-11T19:19:11.515Z,22.34
2022-12-11T19:21:39.458Z,22.32
2022-12-11T19:24:08.981Z,22.35
2022-12-11T19:26:37.033Z,22.35
2022-12-11T19:29:04.697Z,22.33
2022-12-11T19:31:33.401Z,22.32
2022-12-11T19:34:01.698Z,22.34
2022-12-11T19:36:30.953Z,22.34
2022-12-11T19:39:01.909Z,22.32
2022-12-11T19:41:30.881Z,22.33
2022-12-11T19:43:59.413Z,22.33
2022-12-11T19:46:28.160Z,22.33
2022-12-11T19:48:57.226Z,22.32
2022-12-11T19:51:31.452Z,22.32
2022-12-11T19:53:59.441Z,22.31
2022-12-11T19:56:26.854Z,22.32
2022-12-11T19:58:54.285Z,22.31
2022-12-11T20:01:28.928Z,22.32
2022-12-11T20:04:06.107Z,22.32
2022-12-11T20:06:36.198Z,22.31
2022-12-11T20:09:05.739Z,22.31
2022-12-11T20:11:33.801Z,22.31
2022-12-11T20:14:01.236Z,22.33
2022-12-11T20:16:53.702Z,22.31
2022-12-11T20:19:15.979Z,22.33
2022-12-11T20:21:43.358Z,22.30
2022-12-11T20:24:11.295Z,22.32
2022-12-11T20:26:39.100Z,22.32
2022-12-11T20:29:08.352Z,22.34
2022-12-11T20:31:36.855Z,22.31
2022-12-11T20:34:05.929Z,22.30
2022-12-11T20:36:33.920Z,22.30
2022-12-11T20:39:01.581Z,22.30
2022-12-11T20:41:29.391Z,22.31
2022-12-11T20:43:56.933Z,22.31
2022-12-11T20:46:25.656Z,22.31
2022-12-11T20:48:55.582Z,22.32
2022-12-11T20:51:26.233Z,22.33
2022-12-11T20:53:58.908Z,22.39
2022-12-11T20:56:29.922Z,22.41
2022-12-11T20:58:59.411Z,22.43
2022-12-11T21:01:29.496Z,22.45
2022-12-11T21:03:57.901Z,22.43
2022-12-11T21:06:33.717Z,22.45
2022-12-11T21:09:07.527Z,22.45
2022-12-11T21:11:35.397Z,22.46
2022-12-11T21:14:03.726Z,22.46
2022-12-11T21:16:32.008Z,22.47
2022-12-11T21:18:59.656Z,22.51
2022-12-11T21:21:27.219Z,22.48
2022-12-11T21:23:54.822Z,22.47
2022-12-11T21:26:22.421Z,22.46
2022-12-11T21:28:50.077Z,22.48
2022-12-11T21:31:18.987Z,22.48
2022-12-11T21:33:46.896Z,22.51
2022-12-11T21:36:15.281Z,22.51
2022-12-11T21:38:43.885Z,22.49
2022-12-11T21:41:14.435Z,22.52
2022-12-11T21:44:14.680Z,22.50
2022-12-11T21:46:31.380Z,22.50
2022-12-11T21:49:00.201Z,22.49
2022-12-11T21:51:35.978Z,22.53
2022-12-11T21:54:06.688Z,22.52
2022-12-11T21:56:34.308Z,22.48
2022-12-11T21:59:02.050Z,22.51
2022-12-11T22:01:34.293Z,22.48
2022-12-11T22:04:02.458Z,22.46
2022-12-11T22:06:29.874Z,22.50
2022-12-11T22:08:57.420Z,22.50
2022-12-11T22:11:28.798Z,22.50
2022-12-11T22:13:56.725Z,22.48
2022-12-11T22:16:24.761Z,22.47
2022-12-11T22:18:53.368Z,22.46
2022-12-11T22:21:21.059Z,22.49
2022-12-11T22:23:48.592Z,22.50
2022-12-11T22:26:19.253Z,22.49
2022-12-11T22:28:47.001Z,22.50
2022-12-11T22:31:17.368Z,22.50
2022-12-11T22:33:44.965Z,22.52
2022-12-11T22:36:12.581Z,22.52
2022-12-11T22:38:40.141Z,22.49
2022-12-11T22:41:16.279Z,22.51
2022-12-11T22:43:46.453Z,22.50
2022-12-11T22:46:15.674Z,22.51
2022-12-11T22:48:43.172Z,22.51
2022-12-11T22:51:11.364Z,22.53
2022-12-11T22:53:39.074Z,22.55
2022-12-11T22:56:08.113Z,22.54
2022-12-11T22:58:35.734Z,22.56
2022-12-11T23:01:07.627Z,22.56
2022-12-11T23:03:35.093Z,22.59
2022-12-11T23:06:06.880Z,22.57
2022-12-11T23:08:35.203Z,22.55
2022-12-11T23:11:09.746Z,22.55
2022-12-11T23:13:37.172Z,22.57
2022-12-11T23:16:05.024Z,22.57
2022-12-11T23:18:32.938Z,22.54
2022-12-11T23:21:00.584Z,22.54
2022-12-11T23:23:28.670Z,22.58
2022-12-11T23:25:56.876Z,22.58
2022-12-11T23:28:24.420Z,22.58
2022-12-11T23:30:51.910Z,22.57
2022-12-11T23:33:19.398Z,22.56
2022-12-11T23:35:46.863Z,22.60
2022-12-11T23:38:14.533Z,22.59
2022-12-11T23:40:42.118Z,22.58
2022-12-11T23:43:09.555Z,22.55
2022-12-11T23:45:37.021Z,22.56
2022-12-11T23:48:04.539Z,22.56
2022-12-11T23:50:33.000Z,22.59
2022-12-11T23:53:00.633Z,22.60
2022-12-11T23:55:28.651Z,22.59
2022-12-11T23:57:56.425Z,22.60
